Hovedside
METAR-TAF:

METAR-TAF

Lufthavner :

Visby lufthavn

Visby, Gotland, Sverige

breddegrad: 57-40N, lengdegrad: 018-21E, høyde over havet: 51 m

Gjeldene værobservasjon

Denne rapporten ble laget for 5 timer og 28 minutter siden, klokken 22:50 UTC
Vind 25 kt fra Nord-nordvest
Temperatur 6°C
Luftfuktighet 75%
Trykk 991 hPa
Sikt 10 km eller mer

METAR: ESSV 232250Z AUTO 34025KT 9999 FEW023/// BKN035/// 06/02 Q0991

Tid: 06:18 (04:18 UTC)

Varsel

Denne rapporten ble laget for 2 timer og 48 minutter siden, klokken 01:30 UTC
Varsel gyldig fra 24. klokken 02 UTC til 24. klokken 09 UTC
Vind 23 kt fra Nord-nordvest
Sikt 10 km eller mer
Spredte skyer i en høyde av 2000 ft, Tårnskyer (cumulus).
Brutte skyer i en høyde av 3500 ft
lette regnbyger

TAF: ESSV 240130Z 2402/2409 34023KT 9999 -SHRA SCT020TCU BKN035

Værobservasjoner og værvarsel for over 4000 flyplasser (METAR- og TAF-rapporter).

Tilgjengelige stasjoner er representert av de røde og gule prikkene på kartet.

Hold musepekeren over prikken for å se navnet på stasjonen.

Klikk så for å se værobservasjoner og -varsler.

For å forandre kartet kan du klikke på den grønne knappen med svart kryss for å zoome inn, på den grønne knappen med strek for å zoome ut, eller på de grønne pilene for å se tilstøtende kart.


METAR-TAF: